Time;durP1;ratioP1;P1;durP2;ratioP2;P2;SDS_P1;SDS_P2;PMS_P1;PMS_P2;Temp;Humidity;BMP_temperature;BMP_pressure;BME280_temperature;BME280_humidity;BME280_pressure;Samples;Min_cycle;Max_cycle;Signal;HPM_P1;HPM_P2
2023/06/05 00:03:04;;;;;;;5.90;3.30;;;;;;;10.02;54.30;100766.82;133721;1302;22520;-76
2023/06/05 00:06:06;;;;;;;4.90;3.10;;;;;;;10.02;54.31;100761.92;133807;1290;22453;-74
2023/06/05 00:09:07;;;;;;;5.00;3.30;;;;;;;10.02;54.42;100758.00;133817;1294;22584;-74
2023/06/05 00:12:07;;;;;;;;;;;;;;;10.00;54.51;100755.05;133839;1301;22446;-77
2023/06/05 00:15:12;;;;;;;4.70;3.00;;;;;;;9.95;54.68;100754.63;133791;1300;22465;-74
2023/06/05 00:18:15;;;;;;;7.10;3.30;;;;;;;9.93;54.84;100751.88;133737;1302;23131;-74
2023/06/05 00:21:19;;;;;;;4.90;3.20;;;;;;;9.89;55.14;100757.80;133795;1301;22191;-79
2023/06/05 00:24:26;;;;;;;5.20;3.00;;;;;;;9.86;55.16;100754.02;133739;1301;22439;-74
2023/06/05 00:27:30;;;;;;;6.30;3.00;;;;;;;9.81;55.28;100755.41;133725;1302;23105;-75
2023/06/05 00:30:36;;;;;;;4.20;2.80;;;;;;;9.76;55.39;100755.20;133763;1300;22839;-74
2023/06/05 00:33:39;;;;;;;5.60;3.20;;;;;;;9.74;55.70;100759.97;133738;1301;22534;-75
2023/06/05 00:36:40;;;;;;;5.40;3.10;;;;;;;9.65;55.90;100755.73;133706;1302;22474;-73
2023/06/05 00:39:41;;;;;;;6.10;3.10;;;;;;;9.56;55.83;100756.05;133810;1301;22421;-73
2023/06/05 00:42:42;;;;;;;5.50;3.50;;;;;;;9.52;55.92;100751.98;133751;1301;22414;-73
2023/06/05 00:45:43;;;;;;;7.00;3.20;;;;;;;9.49;56.12;100754.36;133743;1301;22366;-73
2023/06/05 00:48:46;;;;;;;8.70;3.90;;;;;;;9.46;56.15;100749.39;133765;1300;22445;-79
2023/06/05 00:51:47;;;;;;;7.40;3.60;;;;;;;9.40;56.42;100749.73;133827;1301;23156;-74
2023/06/05 00:54:48;;;;;;;6.00;3.10;;;;;;;9.33;56.82;100747.23;133779;1300;23131;-74
2023/06/05 00:57:52;;;;;;;5.20;3.50;;;;;;;9.31;57.06;100753.39;133574;1300;23115;-74
2023/06/05 01:00:53;;;;;;;6.30;3.70;;;;;;;9.34;57.16;100748.77;133730;1301;22361;-74
2023/06/05 01:03:58;;;;;;;7.40;3.20;;;;;;;9.31;57.37;100743.22;133795;1301;22357;-79
2023/06/05 01:07:02;;;;;;;6.40;3.30;;;;;;;9.27;57.60;100744.30;133660;1301;22120;-74
2023/06/05 01:10:10;;;;;;;12.30;3.70;;;;;;;9.20;57.86;100742.75;133778;1301;22362;-73
2023/06/05 01:13:46;;;;;;;7.00;3.10;;;;;;;9.13;57.86;100739.90;133727;1301;22418;-74
2023/06/05 01:16:48;;;;;;;8.60;3.20;;;;;;;9.02;58.21;100741.06;133664;1302;22519;-74
2023/06/05 01:19:50;;;;;;;4.10;2.70;;;;;;;8.96;58.33;100739.34;133837;1288;22435;-73
2023/06/05 01:22:53;;;;;;;4.90;3.20;;;;;;;8.95;58.55;100740.48;133775;1301;22196;-74
2023/06/05 01:26:00;;;;;;;7.30;3.20;;;;;;;8.92;58.61;100738.50;133772;1301;22468;-73
2023/06/05 01:29:09;;;;;;;5.00;3.60;;;;;;;8.85;58.81;100740.20;133776;1300;22402;-73
2023/06/05 01:32:18;;;;;;;5.40;3.20;;;;;;;8.77;59.06;100740.55;133757;1303;22958;-73
2023/06/05 01:35:27;;;;;;;8.40;3.20;;;;;;;8.72;59.28;100737.48;133742;1301;23774;-73
2023/06/05 01:38:34;;;;;;;10.90;3.70;;;;;;;8.71;59.22;100731.25;133787;1300;22440;-74
2023/06/05 01:41:41;;;;;;;4.70;3.40;;;;;;;8.72;59.20;100733.23;133576;1302;22388;-73
2023/06/05 01:44:42;;;;;;;5.40;3.60;;;;;;;8.74;59.18;100734.61;133777;1296;23215;-73
2023/06/05 01:47:45;;;;;;;6.50;3.60;;;;;;;8.78;59.15;100735.18;133764;1301;22388;-73
2023/06/05 01:50:46;;;;;;;8.90;4.00;;;;;;;8.82;59.33;100735.77;133737;1301;22251;-74
2023/06/05 01:53:48;;;;;;;;;;;;;;;8.82;59.45;100734.84;133690;1300;22497;-73
2023/06/05 01:56:50;;;;;;;7.70;3.60;;;;;;;8.78;59.53;100734.14;133624;1301;22267;-74
2023/06/05 01:59:51;;;;;;;7.50;2.90;;;;;;;8.74;59.66;100730.81;133557;1294;22446;-74
2023/06/05 02:02:54;;;;;;;;;;;;;;;8.67;59.59;100732.64;133593;1301;22423;-74
2023/06/05 02:05:54;;;;;;;6.10;3.60;;;;;;;8.59;59.84;100736.03;133766;1304;22454;-74
2023/06/05 02:08:55;;;;;;;5.90;3.40;;;;;;;8.53;59.90;100732.89;133822;1301;22253;-74
2023/06/05 02:11:56;;;;;;;5.70;3.50;;;;;;;8.45;60.09;100734.66;133757;1301;22996;-74
2023/06/05 02:14:59;;;;;;;5.20;3.10;;;;;;;8.36;60.46;100728.58;133831;1300;22386;-73
2023/06/05 02:18:00;;;;;;;5.30;3.40;;;;;;;8.29;60.91;100726.90;133475;1301;23193;-73
2023/06/05 02:21:00;;;;;;;;;;;;;;;8.12;61.06;100723.42;133798;1297;22474;-73
2023/06/05 02:24:02;;;;;;;6.10;3.20;;;;;;;8.01;61.05;100725.68;133713;1301;22463;-73
2023/06/05 02:27:10;;;;;;;9.50;4.90;;;;;;;7.93;61.31;100724.63;133760;1294;22171;-73
2023/06/05 02:30:13;;;;;;;7.10;3.60;;;;;;;7.92;61.62;100722.77;133600;1301;23593;-73
2023/06/05 02:33:14;;;;;;;7.50;4.10;;;;;;;7.93;61.60;100722.15;133729;1301;22550;-74
2023/06/05 02:36:16;;;;;;;6.00;3.60;;;;;;;7.91;61.50;100726.18;133766;1301;23312;-73
2023/06/05 02:39:17;;;;;;;5.80;3.80;;;;;;;7.88;61.73;100727.37;133593;1301;22367;-79
2023/06/05 02:42:18;;;;;;;4.90;3.50;;;;;;;7.84;61.99;100727.33;133640;1304;22405;-73
2023/06/05 02:45:21;;;;;;;;;;;;;;;7.82;61.93;100722.09;133622;1301;22495;-76
2023/06/05 02:48:22;;;;;;;7.20;3.50;;;;;;;7.81;62.07;100725.63;133626;1301;22376;-73
2023/06/05 02:51:27;;;;;;;4.80;3.30;;;;;;;7.77;62.32;100726.74;133577;1300;22515;-73
2023/06/05 02:54:28;;;;;;;8.30;3.70;;;;;;;7.69;62.79;100727.91;133678;1301;22232;-74
2023/06/05 02:57:32;;;;;;;4.90;4.00;;;;;;;7.59;62.95;100729.63;133622;1301;22457;-73
2023/06/05 03:00:33;;;;;;;6.80;3.60;;;;;;;7.58;62.91;100727.48;133814;1301;22460;-73
2023/06/05 03:03:39;;;;;;;7.20;3.70;;;;;;;7.61;63.10;100729.27;133631;1301;22471;-73
2023/06/05 03:06:43;;;;;;;7.30;4.10;;;;;;;7.62;63.39;100731.36;133800;1301;22478;-73
2023/06/05 03:09:47;;;;;;;10.60;3.60;;;;;;;7.56;63.45;100733.48;133598;1302;22416;-78
2023/06/05 03:12:49;;;;;;;10.60;3.80;;;;;;;7.54;63.65;100725.52;133690;1301;22450;-74
2023/06/05 03:15:53;;;;;;;8.20;3.70;;;;;;;7.62;63.79;100726.81;133753;1300;22444;-73
2023/06/05 03:18:55;;;;;;;6.90;3.40;;;;;;;7.74;63.76;100728.94;133579;1303;22623;-77
2023/06/05 03:21:58;;;;;;;8.20;3.40;;;;;;;7.90;63.88;100730.29;133756;1301;22204;-81
2023/06/05 03:24:59;;;;;;;9.20;4.10;;;;;;;8.11;64.13;100727.59;133564;1304;23295;-76
2023/06/05 03:28:00;;;;;;;6.20;3.50;;;;;;;8.32;63.98;100729.91;133580;1301;23119;-83
2023/06/05 03:31:05;;;;;;;7.70;3.50;;;;;;;8.53;64.01;100730.88;133616;1295;22184;-75
2023/06/05 03:34:08;;;;;;;5.50;3.20;;;;;;;8.83;63.87;100725.70;133695;1301;22206;-73
2023/06/05 03:37:12;;;;;;;5.30;3.80;;;;;;;9.16;63.72;100726.42;133683;1301;23249;-73
2023/06/05 03:40:16;;;;;;;6.00;3.40;;;;;;;9.46;63.43;100729.10;133719;1301;22372;-72
2023/06/05 03:43:17;;;;;;;5.90;3.50;;;;;;;9.79;63.42;100729.98;133576;1302;22203;-76
2023/06/05 03:46:24;;;;;;;7.60;3.30;;;;;;;10.14;63.11;100730.13;133521;1294;22258;-70
2023/06/05 03:49:25;;;;;;;9.90;3.50;;;;;;;10.42;62.77;100730.61;133364;1303;245105;-74
2023/06/05 03:52:26;;;;;;;8.20;4.00;;;;;;;10.73;62.35;100736.91;133609;1304;23050;-72
2023/06/05 03:55:44;;;;;;;6.50;3.00;;;;;;;11.10;62.25;100738.77;133798;1301;22349;-72
2023/06/05 03:58:50;;;;;;;4.70;3.70;;;;;;;11.58;62.20;100732.62;133547;1301;22382;-77
2023/06/05 04:01:51;;;;;;;6.60;3.60;;;;;;;12.05;61.62;100734.84;133745;1301;22219;-73
2023/06/05 04:04:54;;;;;;;6.70;3.50;;;;;;;12.35;60.99;100731.60;133735;1301;22383;-72
2023/06/05 04:08:01;;;;;;;4.40;3.10;;;;;;;12.72;60.60;100729.94;133785;1305;22389;-72
2023/06/05 04:11:07;;;;;;;6.60;3.80;;;;;;;13.07;60.23;100729.00;133773;1302;22397;-72
2023/06/05 04:14:11;;;;;;;7.60;4.10;;;;;;;13.42;59.80;100728.54;133641;1300;23295;-75
2023/06/05 04:17:13;;;;;;;5.10;3.60;;;;;;;13.75;59.46;100734.64;133574;1308;22372;-74
2023/06/05 04:20:17;;;;;;;7.30;3.30;;;;;;;14.19;59.06;100733.98;133696;1301;22472;-72
2023/06/05 04:23:18;;;;;;;5.30;3.60;;;;;;;14.65;58.20;100735.77;133754;1301;22453;-73
2023/06/05 04:26:24;;;;;;;5.40;3.40;;;;;;;15.14;57.66;100735.91;133551;1301;22378;-72
2023/06/05 04:29:27;;;;;;;8.30;3.50;;;;;;;15.77;57.62;100731.14;133586;1301;22247;-73
2023/06/05 04:32:34;;;;;;;6.50;3.20;;;;;;;16.23;56.52;100732.13;133735;1301;22499;-75
2023/06/05 04:35:41;;;;;;;5.90;3.50;;;;;;;16.54;55.51;100735.30;133709;1300;22458;-80
2023/06/05 04:38:45;;;;;;;4.10;3.00;;;;;;;17.09;54.86;100731.25;133744;1301;22527;-72
2023/06/05 04:41:49;;;;;;;10.50;3.40;;;;;;;17.55;53.66;100730.73;133691;1301;23169;-73
2023/06/05 04:45:01;;;;;;;7.30;3.60;;;;;;;17.99;53.15;100735.55;133586;1301;23178;-78
2023/06/05 04:48:05;;;;;;;9.80;3.00;;;;;;;18.37;52.25;100735.98;133535;1301;23170;-73
2023/06/05 04:51:07;;;;;;;6.00;3.30;;;;;;;18.69;51.33;100736.05;133622;1308;22468;-72
2023/06/05 04:54:12;;;;;;;5.00;3.20;;;;;;;18.86;50.66;100731.70;133737;1301;22410;-74
2023/06/05 04:57:16;;;;;;;4.70;3.70;;;;;;;19.05;50.04;100731.27;133596;1302;23224;-72
2023/06/05 05:00:17;;;;;;;6.70;3.40;;;;;;;19.22;49.44;100725.64;133552;1304;22393;-72
2023/06/05 05:03:22;;;;;;;4.70;3.60;;;;;;;19.39;48.95;100724.09;133572;1304;23200;-72
2023/06/05 05:06:24;;;;;;;5.80;3.10;;;;;;;19.50;48.25;100722.34;133642;1296;22378;-72
2023/06/05 05:09:25;;;;;;;8.90;3.40;;;;;;;19.66;47.81;100726.09;133708;1307;22452;-71
2023/06/05 05:12:26;;;;;;;8.40;3.30;;;;;;;19.51;46.69;100724.77;133567;1294;23118;-72
2023/06/05 05:15:31;;;;;;;5.60;3.70;;;;;;;19.35;46.73;100722.61;133771;1305;22403;-72
2023/06/05 05:18:34;;;;;;;5.90;3.60;;;;;;;19.25;46.04;100721.84;133462;1297;22465;-71
2023/06/05 05:21:36;;;;;;;9.40;3.50;;;;;;;19.00;45.88;100724.34;133541;1303;22226;-73
2023/06/05 05:24:37;;;;;;;5.60;3.50;;;;;;;18.86;45.52;100730.83;133579;1300;23263;-71
2023/06/05 05:27:37;;;;;;;6.50;3.10;;;;;;;18.82;45.57;100731.83;133700;1304;22393;-73
2023/06/05 05:30:38;;;;;;;5.50;3.40;;;;;;;18.97;45.51;100734.06;133731;1306;22367;-71
2023/06/05 05:33:39;;;;;;;6.60;3.30;;;;;;;18.99;45.20;100733.52;133607;1302;22501;-71
2023/06/05 05:36:40;;;;;;;8.30;3.20;;;;;;;19.14;45.18;100731.27;133596;1302;22226;-72
2023/06/05 05:39:41;;;;;;;5.20;3.00;;;;;;;19.28;44.77;100727.91;133794;1295;22445;-72
2023/06/05 05:42:41;;;;;;;8.60;2.80;;;;;;;19.37;44.62;100729.52;133761;1302;22422;-71
2023/06/05 05:45:43;;;;;;;4.10;2.70;;;;;;;19.60;44.49;100730.01;133746;1300;22356;-71
2023/06/05 05:48:44;;;;;;;5.80;3.10;;;;;;;19.64;44.07;100733.32;133772;1305;22404;-71
2023/06/05 05:51:45;;;;;;;4.00;2.90;;;;;;;19.61;43.80;100732.66;133749;1305;22402;-71
2023/06/05 05:54:45;;;;;;;5.00;3.30;;;;;;;19.65;43.79;100734.47;133781;1302;22499;-73
2023/06/05 05:57:46;;;;;;;5.70;2.70;;;;;;;19.75;43.48;100731.95;133769;1308;22188;-80
2023/06/05 06:00:47;;;;;;;9.10;3.20;;;;;;;19.98;43.77;100736.36;133722;1302;22280;-72
2023/06/05 06:03:48;;;;;;;8.80;3.50;;;;;;;20.27;43.28;100734.48;133784;1302;22450;-71
2023/06/05 06:06:52;;;;;;;4.00;2.80;;;;;;;20.56;43.16;100736.62;133711;1302;23931;-74
2023/06/05 06:09:58;;;;;;;6.50;3.10;;;;;;;20.78;42.86;100737.81;133678;1301;22135;-72
2023/06/05 06:12:59;;;;;;;4.60;2.90;;;;;;;21.07;42.51;100741.23;133467;1307;24252;-76
2023/06/05 06:16:02;;;;;;;5.60;2.80;;;;;;;21.17;42.31;100739.55;133755;1302;23103;-70
2023/06/05 06:19:03;;;;;;;5.80;3.40;;;;;;;21.47;42.24;100736.24;133661;1297;22360;-71
2023/06/05 06:22:11;;;;;;;8.70;3.80;;;;;;;21.65;42.22;100735.20;133687;1305;22458;-70
2023/06/05 06:25:14;;;;;;;5.90;3.10;;;;;;;22.00;42.06;100739.64;133642;1302;22418;-71
2023/06/05 06:28:15;;;;;;;7.90;3.10;;;;;;;22.36;41.84;100741.41;133761;1301;22386;-70
2023/06/05 06:31:21;;;;;;;3.90;2.80;;;;;;;22.55;41.28;100741.35;133700;1301;22246;-72
2023/06/05 06:34:26;;;;;;;9.60;2.80;;;;;;;22.44;41.27;100740.98;133737;1301;22198;-72
2023/06/05 06:37:28;;;;;;;5.50;3.10;;;;;;;22.53;40.89;100741.10;133685;1301;22139;-72
2023/06/05 06:40:31;;;;;;;8.10;3.40;;;;;;;22.33;40.58;100738.29;133713;1302;22465;-73
2023/06/05 06:43:32;;;;;;;9.20;3.00;;;;;;;22.25;40.65;100737.48;133640;1301;22408;-73
2023/06/05 06:46:36;;;;;;;4.80;2.90;;;;;;;22.47;40.42;100739.26;133724;1308;22420;-72
2023/06/05 06:49:37;;;;;;;6.00;2.60;;;;;;;22.63;40.51;100738.27;133754;1302;22507;-73
2023/06/05 06:52:37;;;;;;;5.40;3.10;;;;;;;22.52;40.33;100743.13;133746;1305;23252;-71
2023/06/05 06:55:38;;;;;;;4.10;2.70;;;;;;;22.44;40.38;100738.06;133781;1301;22510;-74
2023/06/05 06:58:39;;;;;;;5.60;3.50;;;;;;;22.74;40.33;100743.48;133720;1301;22467;-71
2023/06/05 07:01:45;;;;;;;6.80;3.20;;;;;;;22.83;40.05;100744.99;133711;1308;23111;-71
2023/06/05 07:04:46;;;;;;;5.90;3.00;;;;;;;22.93;39.67;100746.05;133758;1303;22370;-78
2023/06/05 07:07:47;;;;;;;3.70;2.90;;;;;;;23.25;39.80;100742.61;133785;1302;22424;-71
2023/06/05 07:10:48;;;;;;;7.00;3.10;;;;;;;23.56;39.19;100741.14;133708;1308;23138;-71
2023/06/05 07:13:48;;;;;;;7.80;3.00;;;;;;;23.80;38.99;100737.64;133766;1308;22476;-73
2023/06/05 07:16:51;;;;;;;6.90;2.80;;;;;;;24.19;38.78;100739.50;133738;1302;22296;-71
2023/06/05 07:19:52;;;;;;;5.50;2.70;;;;;;;24.24;38.18;100737.58;133720;1302;22347;-71
2023/06/05 07:22:52;;;;;;;6.90;3.20;;;;;;;24.50;38.67;100737.53;133721;1302;22446;-71
2023/06/05 07:25:53;;;;;;;4.80;2.70;;;;;;;25.01;38.30;100738.59;133784;1302;22260;-71
2023/06/05 07:28:54;;;;;;;12.10;3.30;;;;;;;25.46;37.54;100735.14;133808;1304;22462;-75
2023/06/05 07:31:56;;;;;;;9.40;2.70;;;;;;;25.78;36.29;100732.09;133729;1301;22233;-72
2023/06/05 07:34:57;;;;;;;4.40;2.70;;;;;;;26.05;36.46;100735.69;133614;1305;22439;-71
2023/06/05 07:37:57;;;;;;;3.70;2.70;;;;;;;26.45;35.62;100733.46;133720;1302;22447;-73
2023/06/05 07:41:01;;;;;;;4.90;2.40;;;;;;;26.53;35.40;100734.36;133687;1304;22387;-71
2023/06/05 07:44:02;;;;;;;7.70;2.20;;;;;;;26.79;34.96;100737.16;133760;1301;22410;-74
2023/06/05 07:47:03;;;;;;;4.50;2.50;;;;;;;27.01;34.57;100730.46;133822;1301;23115;-71
2023/06/05 07:50:05;;;;;;;5.30;2.50;;;;;;;27.01;34.58;100734.38;133761;1302;22455;-73
2023/06/05 07:53:06;;;;;;;3.80;2.60;;;;;;;27.04;34.14;100734.73;133708;1301;22415;-71
2023/06/05 07:56:07;;;;;;;4.70;2.50;;;;;;;26.94;33.87;100735.69;133712;1302;22423;-71
2023/06/05 07:59:10;;;;;;;3.60;2.30;;;;;;;27.02;34.08;100731.40;133726;1304;22427;-70
2023/06/05 08:02:11;;;;;;;9.60;3.10;;;;;;;26.77;31.99;100727.64;133732;1297;22219;-72
2023/06/05 08:05:12;;;;;;;5.70;2.50;;;;;;;26.30;32.86;100728.11;133706;1307;22402;-73
2023/06/05 08:08:16;;;;;;;5.30;3.00;;;;;;;26.24;33.32;100730.30;133776;1302;22400;-80
2023/06/05 08:11:17;;;;;;;8.30;2.40;;;;;;;26.51;33.37;100724.59;133650;1308;23069;-72
2023/06/05 08:14:18;;;;;;;5.30;2.00;;;;;;;26.97;33.08;100721.40;133794;1302;22411;-71
2023/06/05 08:17:18;;;;;;;7.90;2.40;;;;;;;27.04;32.32;100717.20;133801;1300;22369;-74
2023/06/05 08:20:20;;;;;;;4.40;2.50;;;;;;;26.97;32.58;100721.40;133713;1301;22388;-73
2023/06/05 08:23:20;;;;;;;4.60;2.30;;;;;;;26.94;31.92;100722.09;133775;1301;22922;-71
2023/06/05 08:26:24;;;;;;;4.80;2.40;;;;;;;26.70;31.81;100716.05;133705;1301;22585;-73
2023/06/05 08:29:25;;;;;;;2.60;2.10;;;;;;;26.77;31.90;100721.02;133703;1302;22497;-72
2023/06/05 08:32:33;;;;;;;4.30;1.80;;;;;;;26.78;31.17;100718.30;133725;1301;22512;-72
2023/06/05 08:35:35;;;;;;;3.00;2.10;;;;;;;26.65;31.54;100718.31;133702;1301;22509;-71
2023/06/05 08:38:36;;;;;;;2.20;1.70;;;;;;;26.82;31.11;100719.23;133662;1302;22382;-78
2023/06/05 08:41:37;;;;;;;4.60;2.10;;;;;;;26.56;30.37;100719.52;133778;1301;22528;-71
2023/06/05 08:44:38;;;;;;;5.50;2.50;;;;;;;26.49;30.62;100715.48;133823;1301;22421;-72
2023/06/05 08:47:40;;;;;;;5.20;2.00;;;;;;;26.62;30.87;100712.63;133741;1304;22403;-79
2023/06/05 08:50:42;;;;;;;4.40;1.90;;;;;;;26.54;30.50;100713.86;133746;1301;23075;-75
2023/06/05 08:54:00;;;;;;;3.10;1.70;;;;;;;26.47;30.22;100714.48;133814;1301;22232;-71
2023/06/05 08:57:04;;;;;;;8.20;2.10;;;;;;;26.27;29.12;100709.33;133728;1307;22473;-72
2023/06/05 09:00:07;;;;;;;2.50;1.70;;;;;;;26.24;29.47;100705.45;133758;1304;22463;-72
2023/06/05 09:03:12;;;;;;;4.00;1.80;;;;;;;26.16;28.00;100712.16;133707;1304;22489;-72
2023/06/05 09:06:15;;;;;;;6.70;1.80;;;;;;;25.96;27.44;100712.15;133602;1303;22396;-77
2023/06/05 09:09:16;;;;;;;2.60;1.70;;;;;;;25.72;27.40;100707.23;133765;1304;22468;-71
2023/06/05 09:12:17;;;;;;;2.00;1.60;;;;;;;25.70;27.46;100699.20;133783;1304;22394;-72
2023/06/05 09:15:26;;;;;;;2.20;1.70;;;;;;;25.43;26.96;100712.77;133630;1302;22647;-72
2023/06/05 09:18:28;;;;;;;4.10;1.60;;;;;;;25.22;27.84;100708.34;133562;1301;22108;-71
2023/06/05 09:21:33;;;;;;;5.10;1.80;;;;;;;25.55;27.54;100700.27;133731;1307;22533;-72
2023/06/05 09:24:34;;;;;;;3.10;1.60;;;;;;;25.79;27.19;100705.09;133736;1301;22146;-72
2023/06/05 09:27:38;;;;;;;5.90;1.60;;;;;;;25.91;27.58;100707.25;133437;1302;22603;-71
2023/06/05 09:30:58;;;;;;;2.70;1.70;;;;;;;25.91;27.19;100700.24;133712;1304;22397;-72
2023/06/05 09:33:59;;;;;;;3.30;1.70;;;;;;;25.80;27.67;100696.70;133701;1301;22587;-73
2023/06/05 09:37:01;;;;;;;5.80;1.70;;;;;;;25.74;27.33;100696.66;133775;1301;22391;-71
2023/06/05 09:40:04;;;;;;;2.60;1.90;;;;;;;25.73;27.33;100689.61;133761;1303;23109;-72
2023/06/05 09:43:16;;;;;;;4.20;1.80;;;;;;;25.78;27.39;100683.21;133751;1301;22444;-71
2023/06/05 09:46:16;;;;;;;3.70;1.70;;;;;;;25.66;27.06;100675.84;133730;1302;22105;-78
2023/06/05 09:49:17;;;;;;;4.70;1.90;;;;;;;25.46;27.70;100674.63;133798;1301;22469;-75
2023/06/05 09:52:18;;;;;;;4.00;2.20;;;;;;;25.51;28.42;100667.60;133699;1301;22349;-72
2023/06/05 09:55:22;;;;;;;5.00;1.90;;;;;;;25.57;28.21;100673.23;133704;1301;22213;-76
2023/06/05 09:58:23;;;;;;;2.80;1.90;;;;;;;25.45;27.33;100667.98;133763;1301;22362;-71
2023/06/05 10:01:27;;;;;;;2.70;1.90;;;;;;;25.40;27.65;100666.92;133738;1301;22973;-72
2023/06/05 10:04:29;;;;;;;2.50;2.00;;;;;;;25.28;26.86;100669.76;133609;1301;22556;-77
2023/06/05 10:07:34;;;;;;;4.90;2.30;;;;;;;25.20;27.92;100674.16;133764;1301;22445;-71
2023/06/05 10:10:36;;;;;;;5.40;1.90;;;;;;;25.23;28.40;100668.61;133603;1307;23152;-73
2023/06/05 10:13:37;;;;;;;4.70;2.00;;;;;;;25.27;27.92;100663.23;133681;1303;23129;-71
2023/06/05 10:16:38;;;;;;;3.30;1.90;;;;;;;25.19;28.12;100659.48;133694;1304;22361;-71
2023/06/05 10:19:43;;;;;;;4.00;2.10;;;;;;;25.25;27.85;100658.58;133749;1301;23133;-75
2023/06/05 10:22:45;;;;;;;5.50;2.00;;;;;;;25.29;27.37;100659.02;133713;1301;23171;-72
2023/06/05 10:25:47;;;;;;;8.20;2.60;;;;;;;25.24;27.42;100656.68;133725;1300;22431;-72
2023/06/05 10:29:19;;;;;;;4.40;2.10;;;;;;;25.26;27.56;100651.77;133765;1302;22591;-71
2023/06/05 10:32:28;;;;;;;5.90;2.00;;;;;;;25.27;27.42;100648.67;133788;1300;22516;-71
2023/06/05 10:36:09;;;;;;;4.30;2.10;;;;;;;25.20;27.33;100644.93;133710;1305;23632;-73
2023/06/05 10:39:12;;;;;;;3.10;2.10;;;;;;;25.28;28.33;100640.91;133433;1304;22156;-72
2023/06/05 10:42:25;;;;;;;3.20;1.90;;;;;;;25.24;28.18;100638.70;133691;1292;22428;-71
2023/06/05 10:45:31;;;;;;;3.80;2.00;;;;;;;25.24;27.64;100641.30;133718;1301;23312;-73
2023/06/05 10:49:07;;;;;;;4.60;2.10;;;;;;;25.26;27.85;100642.13;133628;1301;22452;-77
2023/06/05 10:52:36;;;;;;;3.20;2.00;;;;;;;25.51;27.84;100638.17;133717;1307;22234;-72
2023/06/05 10:55:43;;;;;;;3.00;2.20;;;;;;;25.62;27.49;100633.52;133764;1300;22539;-72
2023/06/05 10:59:15;;;;;;;2.60;1.90;;;;;;;25.44;27.35;100628.36;133717;1301;22399;-71
2023/06/05 11:02:16;;;;;;;4.00;2.40;;;;;;;25.42;27.44;100625.08;133641;1300;22596;-71
2023/06/05 11:05:17;;;;;;;3.10;2.00;;;;;;;25.46;27.09;100633.66;133767;1304;22442;-78
2023/06/05 11:08:19;;;;;;;2.30;1.60;;;;;;;25.32;26.99;100630.92;133753;1300;22138;-72
2023/06/05 11:11:23;;;;;;;2.40;1.80;;;;;;;25.29;27.24;100620.83;133736;1302;22287;-72
2023/06/05 11:14:42;;;;;;;7.00;1.90;;;;;;;25.35;27.39;100624.81;133740;1301;23045;-72
2023/06/05 11:17:46;;;;;;;6.70;2.10;;;;;;;25.29;26.85;100622.41;133796;1302;22374;-71
2023/06/05 11:20:47;;;;;;;3.60;2.20;;;;;;;25.25;27.35;100620.84;133716;1297;22451;-72
2023/06/05 11:24:16;;;;;;;2.70;2.10;;;;;;;25.32;27.50;100615.61;133696;1301;22368;-72
2023/06/05 11:27:41;;;;;;;5.50;2.20;;;;;;;25.25;27.22;100607.86;133647;1302;22981;-71
2023/06/05 11:30:43;;;;;;;5.50;2.00;;;;;;;25.41;27.83;100608.33;133826;1298;22472;-77
2023/06/05 11:33:47;;;;;;;2.70;1.90;;;;;;;25.58;27.45;100607.71;133740;1300;22398;-74
2023/06/05 11:36:53;;;;;;;4.90;2.00;;;;;;;25.45;26.68;100608.09;133731;1301;22478;-71
2023/06/05 11:39:54;;;;;;;4.50;2.60;;;;;;;25.34;27.15;100615.46;133578;1303;23263;-72
2023/06/05 11:43:03;;;;;;;3.10;1.70;;;;;;;25.23;27.06;100609.80;133684;1302;24609;-71
2023/06/05 11:46:03;;;;;;;3.60;1.80;;;;;;;25.38;27.15;100601.06;133717;1301;23340;-78
2023/06/05 11:49:04;;;;;;;2.50;1.90;;;;;;;25.38;26.39;100596.78;133791;1301;23244;-75
2023/06/05 11:52:05;;;;;;;3.60;2.20;;;;;;;25.47;26.95;100597.58;133751;1305;22965;-72
2023/06/05 11:55:16;;;;;;;2.70;2.10;;;;;;;25.61;27.05;100599.75;133657;1304;22134;-72
2023/06/05 11:58:27;;;;;;;3.50;2.00;;;;;;;25.64;27.03;100596.81;133744;1301;23212;-71
2023/06/05 12:01:31;;;;;;;3.50;2.20;;;;;;;25.64;26.72;100590.17;133605;1305;22958;-71
2023/06/05 12:04:34;;;;;;;3.80;2.20;;;;;;;25.62;26.51;100584.50;133758;1300;22511;-72
2023/06/05 12:07:40;;;;;;;5.70;2.10;;;;;;;25.59;26.61;100585.65;133698;1301;22388;-71
2023/06/05 12:10:41;;;;;;;5.00;2.30;;;;;;;25.48;25.89;100585.86;133778;1301;22427;-72
2023/06/05 12:13:45;;;;;;;4.40;2.00;;;;;;;25.45;26.13;100581.16;133794;1307;23172;-71
2023/06/05 12:16:46;;;;;;;3.60;1.90;;;;;;;25.39;25.75;100584.30;133619;1304;22141;-71
2023/06/05 12:19:53;;;;;;;7.10;2.30;;;;;;;25.40;26.47;100581.38;133756;1305;22415;-73
2023/06/05 12:22:53;;;;;;;2.90;2.60;;;;;;;25.66;26.71;100577.48;133781;1301;23154;-72
2023/06/05 12:26:03;;;;;;;3.00;2.00;;;;;;;25.72;26.82;100577.55;133713;1302;23402;-71
2023/06/05 12:29:05;;;;;;;4.50;2.30;;;;;;;25.73;26.88;100570.10;133764;1304;22478;-71
2023/06/05 12:32:23;;;;;;;5.80;2.10;;;;;;;25.73;26.97;100571.85;133753;1301;23509;-73
2023/06/05 12:35:29;;;;;;;2.50;2.20;;;;;;;25.78;27.09;100564.73;133599;1307;22469;-76
2023/06/05 12:38:30;;;;;;;5.70;2.20;;;;;;;25.91;27.25;100562.65;133706;1302;22370;-71
2023/06/05 12:41:31;;;;;;;3.30;2.10;;;;;;;25.87;26.57;100562.06;133755;1304;22383;-71
2023/06/05 12:44:34;;;;;;;5.00;2.30;;;;;;;25.69;26.15;100555.17;133803;1301;22353;-71
2023/06/05 12:47:37;;;;;;;2.50;2.00;;;;;;;25.55;26.63;100553.17;133790;1304;22954;-72
2023/06/05 12:50:37;;;;;;;4.40;1.90;;;;;;;25.51;25.83;100547.81;133793;1300;22407;-71
2023/06/05 12:53:40;;;;;;;5.60;2.10;;;;;;;25.35;25.97;100543.77;133729;1308;22490;-71
2023/06/05 12:56:45;;;;;;;6.00;2.40;;;;;;;25.32;26.46;100541.68;133645;1301;22457;-71
2023/06/05 12:59:48;;;;;;;3.00;2.30;;;;;;;25.33;27.04;100537.29;133720;1301;22391;-71
2023/06/05 13:02:49;;;;;;;3.40;2.30;;;;;;;25.33;26.97;100542.83;133765;1301;22457;-75
2023/06/05 13:05:50;;;;;;;3.30;2.00;;;;;;;25.24;26.65;100541.59;133442;1302;22383;-71
2023/06/05 13:08:51;;;;;;;4.40;2.40;;;;;;;25.17;26.87;100530.54;133731;1301;22381;-74
2023/06/05 13:11:54;;;;;;;2.40;2.10;;;;;;;25.19;26.66;100529.42;133679;1292;23250;-70
2023/06/05 13:14:57;;;;;;;4.10;2.20;;;;;;;25.22;26.89;100523.32;133732;1300;22638;-73
2023/06/05 13:17:57;;;;;;;5.20;1.90;;;;;;;25.21;26.92;100519.29;133695;1301;22460;-71
2023/06/05 13:21:02;;;;;;;4.10;2.30;;;;;;;25.18;26.60;100517.36;133689;1301;22415;-70
2023/06/05 13:24:03;;;;;;;3.30;2.40;;;;;;;25.05;25.71;100511.09;133694;1301;22365;-70
2023/06/05 13:27:04;;;;;;;2.40;2.20;;;;;;;24.82;25.94;100506.19;133728;1300;22489;-69
2023/06/05 13:30:08;;;;;;;2.50;2.00;;;;;;;24.81;26.57;100505.20;133808;1302;22390;-71
2023/06/05 13:33:11;;;;;;;3.70;2.00;;;;;;;24.84;26.66;100504.16;133688;1301;22394;-71
2023/06/05 13:36:12;;;;;;;4.90;2.30;;;;;;;24.88;26.85;100502.14;133716;1304;22384;-72
2023/06/05 13:39:12;;;;;;;3.20;2.20;;;;;;;24.85;26.67;100497.83;133711;1303;22457;-73
2023/06/05 13:42:15;;;;;;;6.80;2.40;;;;;;;24.83;26.95;100496.65;133784;1305;22413;-71
2023/06/05 13:45:18;;;;;;;4.20;1.90;;;;;;;24.88;27.09;100494.38;133728;1300;22391;-71
2023/06/05 13:48:19;;;;;;;10.70;2.20;;;;;;;24.87;26.70;100497.23;133761;1301;24534;-71
2023/06/05 13:51:20;;;;;;;5.40;2.30;;;;;;;24.79;26.70;100498.70;133742;1302;22462;-71
2023/06/05 13:54:21;;;;;;;6.30;2.50;;;;;;;24.76;26.67;100492.69;133836;1300;23207;-71
2023/06/05 13:57:24;;;;;;;2.70;2.10;;;;;;;24.80;27.00;100486.40;133681;1304;22517;-71
2023/06/05 14:00:24;;;;;;;5.30;2.40;;;;;;;24.87;27.16;100487.74;133721;1301;22432;-73
2023/06/05 14:03:25;;;;;;;2.70;2.00;;;;;;;24.93;27.17;100484.02;133716;1301;22440;-73
2023/06/05 14:06:25;;;;;;;2.80;2.00;;;;;;;24.99;27.06;100482.67;133736;1300;23061;-72
2023/06/05 14:09:27;;;;;;;4.00;2.20;;;;;;;25.00;27.35;100478.89;133706;1300;22543;-71